createdAt,value
2018-11-11T00:01:14.829Z,99776.77
2018-11-11T00:03:42.223Z,99783.77
2018-11-11T00:06:09.620Z,99784.50
2018-11-11T00:08:37.022Z,99782.53
2018-11-11T00:11:04.426Z,99784.23
2018-11-11T00:13:31.861Z,99776.48
2018-11-11T00:15:59.321Z,99784.77
2018-11-11T00:18:26.732Z,99785.70
2018-11-11T00:20:54.123Z,99788.77
2018-11-11T00:23:21.537Z,99782.73
2018-11-11T00:25:48.928Z,99775.54
2018-11-11T00:28:16.405Z,99774.38
2018-11-11T00:30:43.816Z,99774.55
2018-11-11T00:33:11.316Z,99777.12
2018-11-11T00:35:38.747Z,99765.63
2018-11-11T00:38:06.141Z,99768.17
2018-11-11T00:40:33.540Z,99768.88
2018-11-11T00:43:00.933Z,99775.98
2018-11-11T00:45:28.401Z,99767.44
2018-11-11T00:47:55.796Z,99764.45
2018-11-11T00:50:23.191Z,99769.69
2018-11-11T00:52:50.592Z,99766.09
2018-11-11T00:55:17.987Z,99754.15
2018-11-11T00:57:45.908Z,99756.58
2018-11-11T01:00:14.562Z,99761.14
2018-11-11T01:02:42.768Z,99763.66
2018-11-11T01:05:11.108Z,99758.97
2018-11-11T01:07:39.380Z,99749.25
2018-11-11T01:10:06.785Z,99754.86
2018-11-11T01:12:34.192Z,99755.19
2018-11-11T01:15:01.588Z,99756.81
2018-11-11T01:17:28.997Z,99759.73
2018-11-11T01:19:56.452Z,99764.25
2018-11-11T01:22:23.857Z,99770.69
2018-11-11T01:24:51.245Z,99773.34
2018-11-11T01:27:19.012Z,99767.30
2018-11-11T01:29:46.365Z,99770.75
2018-11-11T01:32:13.808Z,99767.44
2018-11-11T01:34:41.210Z,99764.05
2018-11-11T01:37:08.704Z,99763.19
2018-11-11T01:39:36.105Z,99770.92
2018-11-11T01:42:03.568Z,99782.37
2018-11-11T01:44:31.740Z,99777.21
2018-11-11T01:46:59.145Z,99765.77
2018-11-11T01:49:26.606Z,99755.88
2018-11-11T01:51:54.000Z,99742.50
2018-11-11T01:54:21.520Z,99741.53
2018-11-11T01:56:48.916Z,99747.23
2018-11-11T01:59:16.320Z,99760.30
2018-11-11T02:01:43.768Z,99760.38
2018-11-11T02:04:11.365Z,99763.78
2018-11-11T02:06:38.760Z,99761.67
2018-11-11T02:09:06.161Z,99773.18
2018-11-11T02:11:33.553Z,99767.15
2018-11-11T02:14:00.953Z,99773.18
2018-11-11T02:16:29.225Z,99783.10
2018-11-11T02:18:56.718Z,99785.27
2018-11-11T02:21:24.535Z,99799.41
2018-11-11T02:23:51.887Z,99794.83
2018-11-11T02:26:19.392Z,99792.08
2018-11-11T02:28:46.915Z,99787.95
2018-11-11T02:31:14.308Z,99787.84
2018-11-11T02:33:41.728Z,99778.82
2018-11-11T02:36:09.128Z,99781.78
2018-11-11T02:38:36.535Z,99784.36
2018-11-11T02:41:03.937Z,99789.03
2018-11-11T02:43:31.340Z,99796.38
2018-11-11T02:45:58.894Z,99797.81
2018-11-11T02:48:26.300Z,99794.01
2018-11-11T02:50:53.700Z,99787.27
2018-11-11T02:53:21.119Z,99798.20
2018-11-11T02:55:48.521Z,99793.81
2018-11-11T02:58:16.032Z,99802.07
2018-11-11T03:00:43.424Z,99809.00
2018-11-11T03:03:10.829Z,99820.12
2018-11-11T03:05:38.236Z,99811.27
2018-11-11T03:08:05.635Z,99816.06
2018-11-11T03:10:33.177Z,99810.95
2018-11-11T03:13:00.579Z,99809.66
2018-11-11T03:15:27.988Z,99809.16
2018-11-11T03:17:55.395Z,99825.81
2018-11-11T03:20:22.795Z,99827.38
2018-11-11T03:22:50.212Z,99830.94
2018-11-11T03:25:18.048Z,99830.41
2018-11-11T03:27:45.450Z,99822.25
2018-11-11T03:30:14.083Z,99815.22
2018-11-11T03:32:41.625Z,99817.63
2018-11-11T03:35:09.706Z,99812.92
2018-11-11T03:37:37.220Z,99814.78
2018-11-11T03:40:04.614Z,99820.17
2018-11-11T03:42:32.117Z,99815.83
2018-11-11T03:44:59.572Z,99812.69
2018-11-11T03:47:27.037Z,99820.95
2018-11-11T03:49:54.444Z,99826.66
2018-11-11T03:52:21.850Z,99827.57
2018-11-11T03:54:49.248Z,99818.98
2018-11-11T03:57:16.656Z,99833.70
2018-11-11T03:59:44.114Z,99846.02
2018-11-11T04:02:11.525Z,99835.75
2018-11-11T04:04:38.920Z,99834.50
2018-11-11T04:07:06.589Z,99830.65
2018-11-11T04:09:34.045Z,99835.55
2018-11-11T04:12:01.437Z,99838.10
2018-11-11T04:14:28.840Z,99843.67
2018-11-11T04:16:56.232Z,99854.03
2018-11-11T04:19:23.638Z,99856.63
2018-11-11T04:21:51.056Z,99856.36
2018-11-11T04:24:18.480Z,99865.49
2018-11-11T04:26:45.916Z,99854.45
2018-11-11T04:29:13.396Z,99860.14
2018-11-11T04:31:40.794Z,99860.80
2018-11-11T04:34:08.210Z,99870.31
2018-11-11T04:36:35.604Z,99874.19
2018-11-11T04:39:03.081Z,99875.67
2018-11-11T04:41:30.472Z,99874.75
2018-11-11T04:43:57.940Z,99877.29
2018-11-11T04:46:25.405Z,99878.02
2018-11-11T04:48:52.741Z,99885.39
2018-11-11T04:51:20.212Z,99875.27
2018-11-11T04:53:47.620Z,99883.84
2018-11-11T04:56:15.141Z,99884.80
2018-11-11T04:58:42.590Z,99868.21
2018-11-11T05:01:10.057Z,99890.19
2018-11-11T05:03:37.522Z,99888.66
2018-11-11T05:06:04.952Z,99883.00
2018-11-11T05:08:32.356Z,99874.56
2018-11-11T05:10:59.757Z,99875.78
2018-11-11T05:13:27.148Z,99875.34
2018-11-11T05:15:54.580Z,99871.92
2018-11-11T05:18:22.043Z,99873.95
2018-11-11T05:20:49.477Z,99887.08
2018-11-11T05:23:16.868Z,99892.01
2018-11-11T05:25:44.271Z,99894.98
2018-11-11T05:28:11.666Z,99895.21
2018-11-11T05:30:39.076Z,99893.83
2018-11-11T05:33:06.464Z,99899.64
2018-11-11T05:35:33.864Z,99905.75
2018-11-11T05:38:01.265Z,99905.36
2018-11-11T05:40:28.672Z,99899.45
2018-11-11T05:42:56.105Z,99903.59
2018-11-11T05:45:23.512Z,99903.20
2018-11-11T05:47:50.903Z,99903.45
2018-11-11T05:50:18.372Z,99901.17
2018-11-11T05:52:46.763Z,99909.72
2018-11-11T05:55:14.377Z,99906.48
2018-11-11T05:57:41.957Z,99906.73
2018-11-11T06:00:10.741Z,99907.95
2018-11-11T06:02:38.280Z,99904.47
2018-11-11T06:05:05.784Z,99908.60
2018-11-11T06:07:33.241Z,99909.20
2018-11-11T06:10:00.755Z,99908.92
2018-11-11T06:12:28.161Z,99904.48
2018-11-11T06:14:55.616Z,99907.63
2018-11-11T06:17:23.021Z,99911.74
2018-11-11T06:19:50.520Z,99914.47
2018-11-11T06:22:17.916Z,99916.33
2018-11-11T06:24:45.357Z,99901.88
2018-11-11T06:27:12.764Z,99908.86
2018-11-11T06:29:40.200Z,99896.64
2018-11-11T06:32:07.874Z,99892.87
2018-11-11T06:34:35.444Z,99880.94
2018-11-11T06:37:02.936Z,99876.69
2018-11-11T06:39:30.348Z,99888.00
2018-11-11T06:41:57.760Z,99889.75
2018-11-11T06:44:25.213Z,99885.98
2018-11-11T06:46:52.665Z,99881.51
2018-11-11T06:49:20.063Z,99882.33
2018-11-11T06:51:47.461Z,99880.38
2018-11-11T06:54:15.456Z,99880.20
2018-11-11T06:56:42.902Z,99886.64
2018-11-11T06:59:10.300Z,99899.20
2018-11-11T07:01:37.898Z,99904.53
2018-11-11T07:04:05.305Z,99893.87
2018-11-11T07:06:33.116Z,99889.36
2018-11-11T07:09:00.522Z,99892.17
2018-11-11T07:11:27.937Z,99889.82
2018-11-11T07:13:55.394Z,99892.13
2018-11-11T07:16:22.843Z,99911.06
2018-11-11T07:18:50.244Z,99910.66
2018-11-11T07:21:18.181Z,99917.66
2018-11-11T07:23:45.927Z,99923.72
2018-11-11T07:26:13.391Z,99915.84
2018-11-11T07:28:40.804Z,99895.02
2018-11-11T07:31:08.744Z,99890.58
2018-11-11T07:33:36.139Z,99902.62
2018-11-11T07:36:03.744Z,99934.45
2018-11-11T07:38:31.064Z,99935.44
2018-11-11T07:40:58.476Z,99915.80
2018-11-11T07:43:25.924Z,99912.48
2018-11-11T07:45:53.337Z,99906.97
2018-11-11T07:48:21.020Z,99905.27
2018-11-11T07:50:48.477Z,99905.67
2018-11-11T07:53:16.020Z,99901.39
2018-11-11T07:55:43.425Z,99899.94
2018-11-11T07:58:10.823Z,99914.12
2018-11-11T08:00:38.216Z,99923.91
2018-11-11T08:03:05.650Z,99920.60
2018-11-11T08:05:33.157Z,99925.02
2018-11-11T08:08:00.624Z,99928.87
2018-11-11T08:10:28.025Z,99929.91
2018-11-11T08:12:55.424Z,99939.08
2018-11-11T08:15:22.827Z,99939.20
2018-11-11T08:17:50.223Z,99928.06
2018-11-11T08:20:17.631Z,99927.31
2018-11-11T08:22:45.045Z,99929.91
2018-11-11T08:25:12.500Z,99935.67
2018-11-11T08:27:40.316Z,99930.92
2018-11-11T08:30:07.708Z,99927.58
2018-11-11T08:32:35.185Z,99924.34
2018-11-11T08:35:02.612Z,99926.64
2018-11-11T08:37:30.009Z,99922.41
2018-11-11T08:39:58.989Z,99920.50
2018-11-11T08:42:26.403Z,99899.89
2018-11-11T08:44:53.853Z,99897.60
2018-11-11T08:47:21.252Z,99883.80
2018-11-11T08:49:48.700Z,99888.33
2018-11-11T08:52:16.120Z,99892.73
2018-11-11T08:54:43.528Z,99904.38
2018-11-11T08:57:10.987Z,99914.97
2018-11-11T08:59:38.393Z,99918.00
2018-11-11T09:02:05.803Z,99921.34
2018-11-11T09:04:33.212Z,99920.84
2018-11-11T09:07:00.616Z,99926.81
2018-11-11T09:09:28.072Z,99944.09
2018-11-11T09:11:55.537Z,99943.22
2018-11-11T09:14:22.982Z,99954.91
2018-11-11T09:16:50.388Z,99953.62
2018-11-11T09:19:17.807Z,99967.44
2018-11-11T09:21:45.225Z,99970.78
2018-11-11T09:24:12.880Z,99948.33
2018-11-11T09:26:40.289Z,99943.20
2018-11-11T09:29:08.372Z,99957.08
2018-11-11T09:31:35.911Z,99949.33
2018-11-11T09:34:03.394Z,99935.64
2018-11-11T09:36:30.804Z,99928.11
2018-11-11T09:38:58.215Z,99949.05
2018-11-11T09:41:25.636Z,99947.27
2018-11-11T09:43:53.096Z,99941.70
2018-11-11T09:46:20.512Z,99962.84
2018-11-11T09:48:47.919Z,99974.06
2018-11-11T09:51:15.372Z,99986.88
2018-11-11T09:53:42.776Z,99995.44
2018-11-11T09:56:10.229Z,99989.39
2018-11-11T09:58:37.640Z,99975.34
2018-11-11T10:01:05.045Z,99981.19
2018-11-11T10:03:37.011Z,99982.30
2018-11-11T10:06:09.845Z,99987.80
2018-11-11T10:08:41.457Z,99984.16
2018-11-11T10:11:14.665Z,99990.73
2018-11-11T10:15:51.105Z,99988.46
2018-11-11T10:18:26.684Z,99993.73
2018-11-11T10:21:00.687Z,100006.94
2018-11-11T10:23:32.553Z,100008.81
2018-11-11T10:26:05.451Z,100012.38
2018-11-11T10:28:37.720Z,100016.84
2018-11-11T10:31:20.902Z,100023.34
2018-11-11T10:34:09.133Z,100019.22
2018-11-11T10:36:56.155Z,100027.56
2018-11-11T10:39:27.137Z,100026.52
2018-11-11T10:41:58.392Z,100026.10
2018-11-11T10:44:30.697Z,100035.92
2018-11-11T10:47:03.441Z,100035.21
2018-11-11T10:49:33.588Z,100048.52
2018-11-11T10:52:01.063Z,100053.63
2018-11-11T10:54:28.544Z,100057.05
2018-11-11T10:56:55.884Z,100051.89
2018-11-11T10:59:23.288Z,100062.17
2018-11-11T11:01:56.073Z,100065.47
2018-11-11T11:04:23.488Z,100063.36
2018-11-11T11:06:56.304Z,100062.11
2018-11-11T11:09:23.752Z,100082.17
2018-11-11T11:11:51.155Z,100088.64
2018-11-11T11:14:18.564Z,100082.11
2018-11-11T11:16:46.076Z,100081.75
2018-11-11T11:19:13.488Z,100091.70
2018-11-11T11:21:40.919Z,100092.94
2018-11-11T11:24:08.340Z,100087.53
2018-11-11T11:26:35.756Z,100082.95
2018-11-11T11:29:03.176Z,100081.36
2018-11-11T11:31:30.679Z,100078.00
2018-11-11T11:33:58.012Z,100089.34
2018-11-11T11:36:25.632Z,100095.88
2018-11-11T11:38:53.039Z,100095.99
2018-11-11T11:41:20.582Z,100088.39
2018-11-11T11:43:48.047Z,100089.05
2018-11-11T11:46:15.420Z,100091.03
2018-11-11T11:48:42.855Z,100086.06
2018-11-11T11:51:10.268Z,100087.30
2018-11-11T11:53:37.681Z,100084.97
2018-11-11T11:56:05.101Z,100085.08
2018-11-11T11:58:32.851Z,100090.61
2018-11-11T12:01:00.376Z,100090.25
2018-11-11T12:03:27.794Z,100092.94
2018-11-11T12:05:55.212Z,100091.24
2018-11-11T12:08:22.699Z,100089.30
2018-11-11T12:10:50.065Z,100094.84
2018-11-11T12:13:17.976Z,100084.84
2018-11-11T12:15:45.523Z,100078.53
2018-11-11T12:18:12.938Z,100077.19
2018-11-11T12:20:40.680Z,100081.55
2018-11-11T12:23:08.410Z,100085.45
2018-11-11T12:25:36.524Z,100066.61
2018-11-11T12:28:03.939Z,100066.30
2018-11-11T12:30:31.932Z,100068.78
2018-11-11T12:32:59.408Z,100071.50
2018-11-11T12:35:26.828Z,100069.36
2018-11-11T12:37:54.244Z,100069.62
2018-11-11T12:40:21.763Z,100059.11
2018-11-11T12:42:49.077Z,100046.93
2018-11-11T12:45:16.496Z,100054.22
2018-11-11T12:47:43.912Z,100059.83
2018-11-11T12:50:12.161Z,100066.02
2018-11-11T12:52:39.761Z,100049.23
2018-11-11T12:55:07.232Z,100050.15
2018-11-11T12:57:34.601Z,100047.05
2018-11-11T13:00:02.033Z,100049.31
2018-11-11T13:02:29.485Z,100047.55
2018-11-11T13:04:57.048Z,100051.41
2018-11-11T13:07:24.607Z,100046.59
2018-11-11T13:09:52.033Z,100053.09
2018-11-11T13:12:19.514Z,100056.59
2018-11-11T13:14:46.894Z,100054.34
2018-11-11T13:17:14.871Z,100045.30
2018-11-11T13:19:42.395Z,100053.13
2018-11-11T13:22:09.869Z,100055.22
2018-11-11T13:24:37.168Z,100055.94
2018-11-11T13:27:04.569Z,100060.41
2018-11-11T13:29:31.994Z,100060.45
2018-11-11T13:31:59.447Z,100057.77
2018-11-11T13:34:26.828Z,100061.25
2018-11-11T13:36:54.332Z,100061.55
2018-11-11T13:39:21.740Z,100064.30
2018-11-11T13:41:49.152Z,100058.23
2018-11-11T13:44:16.636Z,100055.59
2018-11-11T13:46:44.066Z,100062.22
2018-11-11T13:49:11.468Z,100064.22
2018-11-11T13:51:38.988Z,100063.27
2018-11-11T13:54:06.410Z,100068.13
2018-11-11T13:56:33.820Z,100069.00
2018-11-11T13:59:01.244Z,100069.88
2018-11-11T14:01:28.728Z,100082.73
2018-11-11T14:03:56.127Z,100073.60
2018-11-11T14:06:23.620Z,100074.94
2018-11-11T14:08:51.028Z,100081.81
2018-11-11T14:11:18.432Z,100079.62
2018-11-11T14:13:45.849Z,100072.68
2018-11-11T14:16:13.274Z,100076.11
2018-11-11T14:18:41.216Z,100076.02
2018-11-11T14:21:08.461Z,100078.91
2018-11-11T14:23:36.105Z,100081.87
2018-11-11T14:26:03.527Z,100097.77
2018-11-11T14:28:30.920Z,100094.15
2018-11-11T14:30:58.432Z,100100.59
2018-11-11T14:33:25.835Z,100094.42
2018-11-11T14:35:53.287Z,100104.23
2018-11-11T14:38:20.809Z,100102.00
2018-11-11T14:40:48.316Z,100107.19
2018-11-11T14:43:15.732Z,100113.27
2018-11-11T14:45:43.208Z,100110.84
2018-11-11T14:48:10.630Z,100111.98
2018-11-11T14:50:38.039Z,100114.01
2018-11-11T14:53:05.941Z,100124.68
2018-11-11T14:55:33.365Z,100126.27
2018-11-11T14:58:01.607Z,100117.41
2018-11-11T15:00:31.446Z,100122.07
2018-11-11T15:02:59.148Z,100120.30
2018-11-11T15:05:26.534Z,100119.73
2018-11-11T15:07:53.948Z,100126.67
2018-11-11T15:10:21.414Z,100125.68
2018-11-11T15:12:48.865Z,100128.00
2018-11-11T15:15:17.624Z,100140.09
2018-11-11T15:17:45.701Z,100140.95
2018-11-11T15:20:14.289Z,100156.84
2018-11-11T15:22:41.538Z,100162.27
2018-11-11T15:25:10.327Z,100170.23
2018-11-11T15:27:37.980Z,100167.45
2018-11-11T15:30:05.396Z,100173.66
2018-11-11T15:32:32.967Z,100178.08
2018-11-11T15:35:00.395Z,100177.27
2018-11-11T15:37:28.268Z,100192.14
2018-11-11T15:39:55.713Z,100192.78
2018-11-11T15:42:23.235Z,100193.00
2018-11-11T15:44:50.629Z,100195.80
2018-11-11T15:47:18.037Z,100203.52
2018-11-11T15:49:45.553Z,100214.20
2018-11-11T15:52:13.002Z,100219.05
2018-11-11T15:54:40.404Z,100225.10
2018-11-11T15:57:07.802Z,100223.39
2018-11-11T15:59:35.348Z,100230.50
2018-11-11T16:02:02.776Z,100234.25
2018-11-11T16:04:30.295Z,100238.23
2018-11-11T16:06:57.809Z,100236.69
2018-11-11T16:09:25.241Z,100236.48
2018-11-11T16:11:52.646Z,100234.63
2018-11-11T16:14:20.070Z,100235.66
2018-11-11T16:16:47.654Z,100243.67
2018-11-11T16:19:15.138Z,100249.23
2018-11-11T16:21:43.268Z,100249.59
2018-11-11T16:24:10.683Z,100249.67
2018-11-11T16:26:38.134Z,100252.17
2018-11-11T16:29:05.558Z,100254.48
2018-11-11T16:31:32.971Z,100268.06
2018-11-11T16:34:00.400Z,100260.84
2018-11-11T16:36:27.872Z,100254.17
2018-11-11T16:38:55.415Z,100250.69
2018-11-11T16:41:22.978Z,100249.87
2018-11-11T16:43:50.276Z,100247.70
2018-11-11T16:46:17.721Z,100253.36
2018-11-11T16:48:45.157Z,100246.52
2018-11-11T16:51:12.630Z,100251.42
2018-11-11T16:53:40.059Z,100252.22
2018-11-11T16:56:07.470Z,100268.28
2018-11-11T16:58:34.872Z,100267.81
2018-11-11T17:01:02.324Z,100266.52
2018-11-11T17:03:29.751Z,100264.25
2018-11-11T17:05:57.245Z,100285.00
2018-11-11T17:08:24.657Z,100267.00
2018-11-11T17:10:52.132Z,100269.67
2018-11-11T17:13:19.616Z,100269.51
2018-11-11T17:15:47.075Z,100250.92
2018-11-11T17:18:14.537Z,100251.19
2018-11-11T17:20:42.026Z,100249.98
2018-11-11T17:23:09.609Z,100252.70
2018-11-11T17:25:37.012Z,100259.18
2018-11-11T17:28:04.522Z,100253.84
2018-11-11T17:30:32.890Z,100252.15
2018-11-11T17:33:01.013Z,100247.97
2018-11-11T17:35:28.372Z,100250.32
2018-11-11T17:37:55.827Z,100253.47
2018-11-11T17:40:26.437Z,100258.67
2018-11-11T17:42:54.604Z,100254.71
2018-11-11T17:45:22.191Z,100250.42
2018-11-11T17:47:50.212Z,100249.25
2018-11-11T17:50:22.040Z,100263.45
2018-11-11T17:52:49.487Z,100281.14
2018-11-11T17:55:18.184Z,100286.78
2018-11-11T17:57:45.795Z,100296.01
2018-11-11T18:00:15.512Z,100304.97
2018-11-11T18:02:43.210Z,100314.48
2018-11-11T18:05:11.860Z,100316.13
2018-11-11T18:07:39.281Z,100319.56
2018-11-11T18:10:06.696Z,100312.07
2018-11-11T18:12:34.104Z,100323.79
2018-11-11T18:15:01.520Z,100318.06
2018-11-11T18:17:28.976Z,100308.92
2018-11-11T18:19:56.397Z,100306.97
2018-11-11T18:22:23.799Z,100312.52
2018-11-11T18:24:51.215Z,100319.48
2018-11-11T18:27:18.649Z,100321.25
2018-11-11T18:29:46.060Z,100335.81
2018-11-11T18:32:13.521Z,100344.28
2018-11-11T18:34:40.936Z,100342.58
2018-11-11T18:37:08.432Z,100340.79
2018-11-11T18:39:36.410Z,100336.83
2018-11-11T18:42:03.808Z,100334.55
2018-11-11T18:44:31.221Z,100329.64
2018-11-11T18:46:58.645Z,100329.51
2018-11-11T18:49:26.045Z,100326.90
2018-11-11T18:51:53.451Z,100322.45
2018-11-11T18:54:21.416Z,100321.67
2018-11-11T18:56:49.005Z,100313.98
2018-11-11T18:59:16.512Z,100311.42
2018-11-11T19:01:43.945Z,100319.55
2018-11-11T19:04:11.557Z,100331.91
2018-11-11T19:06:38.961Z,100317.95
2018-11-11T19:09:06.358Z,100327.22
2018-11-11T19:11:33.848Z,100316.88
2018-11-11T19:14:01.714Z,100314.01
2018-11-11T19:16:29.125Z,100330.94
2018-11-11T19:18:56.533Z,100323.84
2018-11-11T19:21:23.940Z,100326.11
2018-11-11T19:23:51.443Z,100327.48
2018-11-11T19:26:18.822Z,100334.80
2018-11-11T19:28:46.250Z,100336.53
2018-11-11T19:31:13.742Z,100332.95
2018-11-11T19:33:41.299Z,100326.92
2018-11-11T19:36:08.572Z,100334.59
2018-11-11T19:38:35.973Z,100344.92
2018-11-11T19:41:03.405Z,100333.45
2018-11-11T19:43:30.796Z,100334.99
2018-11-11T19:45:58.272Z,100336.70
2018-11-11T19:48:25.808Z,100329.51
2018-11-11T19:50:53.107Z,100328.66
2018-11-11T19:53:20.536Z,100319.81
2018-11-11T19:55:48.011Z,100325.36
2018-11-11T19:58:15.421Z,100320.95
2018-11-11T20:00:42.816Z,100324.22
2018-11-11T20:03:10.303Z,100326.08
2018-11-11T20:05:37.697Z,100323.75
2018-11-11T20:08:05.092Z,100320.03
2018-11-11T20:10:32.625Z,100319.71
2018-11-11T20:13:00.584Z,100323.36
2018-11-11T20:15:30.194Z,100315.98
2018-11-11T20:17:57.605Z,100317.50
2018-11-11T20:20:26.644Z,100318.59
2018-11-11T20:22:54.062Z,100321.46
2018-11-11T20:25:21.961Z,100332.66
2018-11-11T20:27:49.529Z,100329.73
2018-11-11T20:30:19.649Z,100334.59
2018-11-11T20:32:49.761Z,100339.77
2018-11-11T20:35:18.775Z,100344.85
2018-11-11T20:37:46.147Z,100356.30
2018-11-11T20:40:14.889Z,100353.14
2018-11-11T20:42:43.027Z,100357.33
2018-11-11T20:45:11.244Z,100361.05
2018-11-11T20:47:39.331Z,100354.44
2018-11-11T20:50:06.745Z,100346.21
2018-11-11T20:52:34.149Z,100348.29
2018-11-11T20:55:01.629Z,100348.86
2018-11-11T20:57:30.279Z,100345.14
2018-11-11T20:59:57.684Z,100343.17
2018-11-11T21:02:25.132Z,100341.03
2018-11-11T21:04:52.591Z,100337.45
2018-11-11T21:07:20.033Z,100332.52
2018-11-11T21:09:47.501Z,100329.94
2018-11-11T21:12:14.971Z,100332.13
2018-11-11T21:14:42.355Z,100322.80
2018-11-11T21:17:09.778Z,100323.02
2018-11-11T21:19:37.176Z,100328.19
2018-11-11T21:22:04.686Z,100326.39
2018-11-11T21:24:32.148Z,100330.05
2018-11-11T21:26:59.596Z,100336.91
2018-11-11T21:29:27.001Z,100341.92
2018-11-11T21:31:54.397Z,100344.89
2018-11-11T21:34:21.797Z,100346.69
2018-11-11T21:36:49.231Z,100345.61
2018-11-11T21:39:16.640Z,100341.61
2018-11-11T21:41:44.051Z,100328.37
2018-11-11T21:44:11.493Z,100317.84
2018-11-11T21:46:38.925Z,100314.56
2018-11-11T21:49:06.613Z,100315.27
2018-11-11T21:51:34.035Z,100313.63
2018-11-11T21:54:01.437Z,100303.47
2018-11-11T21:56:28.890Z,100309.20
2018-11-11T21:58:56.350Z,100296.59
2018-11-11T22:01:23.808Z,100299.47
2018-11-11T22:03:51.222Z,100300.29
2018-11-11T22:06:18.632Z,100302.03
2018-11-11T22:08:46.116Z,100312.52
2018-11-11T22:11:13.481Z,100323.24
2018-11-11T22:13:40.989Z,100337.88
2018-11-11T22:16:08.576Z,100336.31
2018-11-11T22:18:35.804Z,100335.61
2018-11-11T22:21:03.220Z,100342.95
2018-11-11T22:23:30.632Z,100351.19
2018-11-11T22:25:58.038Z,100367.52
2018-11-11T22:28:25.464Z,100366.37
2018-11-11T22:30:52.876Z,100357.00
2018-11-11T22:33:20.288Z,100349.92
2018-11-11T22:35:47.687Z,100351.12
2018-11-11T22:38:15.100Z,100357.94
2018-11-11T22:40:42.507Z,100363.66
2018-11-11T22:43:09.940Z,100366.48
2018-11-11T22:45:37.724Z,100374.89
2018-11-11T22:48:05.148Z,100371.18
2018-11-11T22:50:32.651Z,100383.89
2018-11-11T22:53:00.064Z,100392.24
2018-11-11T22:55:27.488Z,100394.35
2018-11-11T22:57:54.908Z,100402.45
2018-11-11T23:00:29.778Z,100402.86
2018-11-11T23:02:57.228Z,100410.02
2018-11-11T23:05:25.713Z,100416.27
2018-11-11T23:07:53.144Z,100412.70
2018-11-11T23:10:20.717Z,100414.97
2018-11-11T23:12:48.148Z,100418.38
2018-11-11T23:15:16.924Z,100419.51
2018-11-11T23:17:44.343Z,100418.22
2018-11-11T23:20:12.579Z,100423.10
2018-11-11T23:22:40.416Z,100422.50
2018-11-11T23:25:08.679Z,100424.09
2018-11-11T23:27:36.356Z,100433.85
2018-11-11T23:30:03.917Z,100436.72
2018-11-11T23:32:31.328Z,100444.60
2018-11-11T23:34:58.760Z,100444.84
2018-11-11T23:37:26.225Z,100448.03
2018-11-11T23:39:53.637Z,100444.87
2018-11-11T23:42:21.056Z,100450.74
2018-11-11T23:44:48.484Z,100452.61
2018-11-11T23:47:15.907Z,100445.10
2018-11-11T23:49:43.321Z,100449.31
2018-11-11T23:52:10.756Z,100461.06
2018-11-11T23:54:38.212Z,100461.10
2018-11-11T23:57:05.612Z,100466.94
2018-11-11T23:59:33.020Z,100467.37
